Time;durP1;ratioP1;P1;durP2;ratioP2;P2;SDS_P1;SDS_P2;PMS_P1;PMS_P2;Temp;Humidity;BMP_temperature;BMP_pressure;BME280_temperature;BME280_humidity;BME280_pressure;Samples;Min_cycle;Max_cycle;Signal;HPM_P1;HPM_P2
2021/01/18 00:01:23;;;;;;;;;20.67;18.67;;;;;;;;5081031;28;8862;-70
2021/01/18 00:03:49;;;;;;;;;21.67;19.67;;;;;;;;5077963;28;8992;-69
2021/01/18 00:06:16;;;;;;;;;19.00;19.00;;;;;;;;5080306;28;9717;-69
2021/01/18 00:08:43;;;;;;;;;19.67;18.33;;;;;;;;5078722;28;8946;-70
2021/01/18 00:11:11;;;;;;;;;23.00;19.67;;;;;;;;5079349;28;8847;-69
2021/01/18 00:13:37;;;;;;;;;21.67;18.67;;;;;;;;5079062;28;8834;-69
2021/01/18 00:16:03;;;;;;;;;18.00;16.67;;;;;;;;5078747;28;8816;-70
2021/01/18 00:18:29;;;;;;;;;26.00;19.00;;;;;;;;5080130;28;8884;-69
2021/01/18 00:20:55;;;;;;;;;21.00;19.33;;;;;;;;5077456;28;8913;-69
2021/01/18 00:23:21;;;;;;;;;26.67;19.33;;;;;;;;5080902;28;8837;-69
2021/01/18 00:25:47;;;;;;;;;23.33;17.33;;;;;;;;5077904;28;8825;-69
2021/01/18 00:28:14;;;;;;;;;19.67;18.00;;;;;;;;5079508;28;8881;-69
2021/01/18 00:30:40;;;;;;;;;28.00;19.67;;;;;;;;5079018;28;8961;-69
2021/01/18 00:33:06;;;;;;;;;21.33;18.00;;;;;;;;5079417;28;9548;-69
2021/01/18 00:35:32;;;;;;;;;22.00;21.67;;;;;;;;5080161;28;8992;-69
2021/01/18 00:37:58;;;;;;;;;17.00;14.00;;;;;;;;5078551;28;8902;-69
2021/01/18 00:40:24;;;;;;;;;22.00;21.00;;;;;;;;5080755;28;9498;-69
2021/01/18 00:42:51;;;;;;;;;21.33;15.67;;;;;;;;5073484;28;8959;-69
2021/01/18 00:45:18;;;;;;;;;19.33;17.67;;;;;;;;5080759;28;8828;-69
2021/01/18 00:47:45;;;;;;;;;18.33;14.33;;;;;;;;5078592;28;8971;-69
2021/01/18 00:50:11;;;;;;;;;19.00;18.00;;;;;;;;5082216;28;9607;-69
2021/01/18 00:52:39;;;;;;;;;22.33;21.33;;;;;;;;5083493;28;8952;-69
2021/01/18 00:55:06;;;;;;;;;22.67;21.33;;;;;;;;5083316;28;8951;-69
2021/01/18 00:57:33;;;;;;;;;22.67;20.67;;;;;;;;5076712;28;8979;-69
2021/01/18 00:59:59;;;;;;;;;21.67;18.33;;;;;;;;5084450;28;9708;-69
2021/01/18 01:02:25;;;;;;;;;22.33;19.00;;;;;;;;5081282;28;8828;-69
2021/01/18 01:04:51;;;;;;;;;21.33;18.67;;;;;;;;5085160;28;8902;-70
2021/01/18 01:07:17;;;;;;;;;23.00;20.00;;;;;;;;5081475;28;8983;-69
2021/01/18 01:09:43;;;;;;;;;25.00;21.67;;;;;;;;5084153;28;8943;-69
2021/01/18 01:12:09;;;;;;;;;21.33;18.67;;;;;;;;5082550;28;8834;-69
2021/01/18 01:14:35;;;;;;;;;19.33;19.33;;;;;;;;5083159;28;8841;-70
2021/01/18 01:17:01;;;;;;;;;22.00;19.33;;;;;;;;5083772;28;8984;-69
2021/01/18 01:19:28;;;;;;;;;22.33;16.00;;;;;;;;5081809;28;8866;-69
2021/01/18 01:21:54;;;;;;;;;17.33;17.33;;;;;;;;5084727;28;8826;-69
2021/01/18 01:24:20;;;;;;;;;27.00;22.33;;;;;;;;5081253;28;8841;-69
2021/01/18 01:26:46;;;;;;;;;24.00;20.67;;;;;;;;5084360;28;8830;-69
2021/01/18 01:29:12;;;;;;;;;17.67;17.67;;;;;;;;5081641;28;8911;-70
2021/01/18 01:31:38;;;;;;;;;20.67;20.33;;;;;;;;5083050;28;8999;-69
2021/01/18 01:34:05;;;;;;;;;18.00;12.33;;;;;;;;5082848;28;8850;-69
2021/01/18 01:36:31;;;;;;;;;24.00;20.33;;;;;;;;5082018;28;8849;-69
2021/01/18 01:38:57;;;;;;;;;23.67;20.33;;;;;;;;5083740;28;8846;-69
2021/01/18 01:41:23;;;;;;;;;27.00;21.00;;;;;;;;5080762;28;8828;-69
2021/01/18 01:43:49;;;;;;;;;21.00;17.00;;;;;;;;5084181;28;9514;-69
2021/01/18 01:46:18;;;;;;;;;17.33;13.67;;;;;;;;5081053;28;8825;-70
2021/01/18 01:48:44;;;;;;;;;18.33;17.00;;;;;;;;5083610;28;8928;-69
2021/01/18 01:51:10;;;;;;;;;20.33;16.00;;;;;;;;5081353;28;8833;-69
2021/01/18 01:53:37;;;;;;;;;21.33;18.67;;;;;;;;5082379;28;8845;-69
2021/01/18 01:56:03;;;;;;;;;26.00;21.67;;;;;;;;5082747;28;8838;-69
2021/01/18 01:58:29;;;;;;;;;27.33;20.33;;;;;;;;5081186;28;8966;-69
2021/01/18 02:00:57;;;;;;;;;23.33;18.33;;;;;;;;5083138;28;8941;-69
2021/01/18 02:03:29;;;;;;;;;23.33;17.67;;;;;;;;5080248;28;8949;-69
2021/01/18 02:05:56;;;;;;;;;24.67;19.00;;;;;;;;5083400;28;8846;-68
2021/01/18 02:08:22;;;;;;;;;23.00;21.33;;;;;;;;5080259;28;8859;-69
2021/01/18 02:10:48;;;;;;;;;20.00;16.00;;;;;;;;5084046;28;9546;-69
2021/01/18 02:13:22;;;;;;;;;21.00;16.67;;;;;;;;5080476;28;8947;-69
2021/01/18 02:15:52;;;;;;;;;22.00;19.33;;;;;;;;5083927;28;8838;-69
2021/01/18 02:18:21;;;;;;;;;19.25;18.75;;;;;;;;5075880;28;9718;-69
2021/01/18 02:21:02;;;;;;;;;16.67;14.00;;;;;;;;5083459;28;8967;-70
2021/01/18 02:23:46;;;;;;;;;17.33;17.33;;;;;;;;5054997;28;9015;-68
2021/01/18 02:26:17;;;;;;;;;24.33;20.33;;;;;;;;5080291;28;10064;-69
2021/01/18 02:28:58;;;;;;;;;19.00;15.33;;;;;;;;5082690;28;8838;-69
2021/01/18 02:31:46;;;;;;;;;16.00;16.00;;;;;;;;5074953;28;8997;-69
2021/01/18 02:34:26;;;;;;;;;19.00;19.00;;;;;;;;5080314;28;9142;-69
2021/01/18 02:37:01;;;;;;;;;22.33;17.33;;;;;;;;5079981;28;8852;-68
2021/01/18 02:39:31;;;;;;;;;18.33;18.33;;;;;;;;5082345;28;8830;-69
2021/01/18 02:41:59;;;;;;;;;22.00;15.67;;;;;;;;5080305;28;8833;-69
2021/01/18 02:44:26;;;;;;;;;18.33;17.33;;;;;;;;5082649;28;8941;-68
2021/01/18 02:46:52;;;;;;;;;21.67;16.67;;;;;;;;5079465;28;8852;-69
2021/01/18 02:49:18;;;;;;;;;16.33;13.33;;;;;;;;5075274;28;8840;-69
2021/01/18 02:51:47;;;;;;;;;13.67;13.00;;;;;;;;5082908;28;8965;-69
2021/01/18 02:54:14;;;;;;;;;18.00;15.33;;;;;;;;5079647;28;8872;-69
2021/01/18 02:56:40;;;;;;;;;18.25;16.25;;;;;;;;5082039;28;8817;-69
2021/01/18 02:59:10;;;;;;;;;19.67;16.67;;;;;;;;5080911;28;9007;-70
2021/01/18 03:01:53;;;;;;;;;23.25;19.00;;;;;;;;5081355;28;8833;-70
2021/01/18 03:04:24;;;;;;;;;20.25;17.50;;;;;;;;5075806;28;8951;-70
2021/01/18 03:06:55;;;;;;;;;20.50;18.75;;;;;;;;5075919;28;8816;-70
2021/01/18 03:09:25;;;;;;;;;21.25;20.75;;;;;;;;5075576;28;8828;-69
2021/01/18 03:11:54;;;;;;;;;23.50;22.25;;;;;;;;5078587;28;8951;-69
2021/01/18 03:14:22;;;;;;;;;26.75;24.25;;;;;;;;5075393;28;8917;-69
2021/01/18 03:16:49;;;;;;;;;25.75;23.50;;;;;;;;5075002;28;9037;-69
2021/01/18 03:19:17;;;;;;;;;26.50;23.75;;;;;;;;5082309;28;8838;-70
2021/01/18 03:21:45;;;;;;;;;19.00;16.75;;;;;;;;5079418;28;8837;-70
2021/01/18 03:24:11;;;;;;;;;24.75;22.00;;;;;;;;5081335;28;9798;-70
2021/01/18 03:26:37;;;;;;;;;27.25;24.00;;;;;;;;5080111;28;8838;-69
2021/01/18 03:29:03;;;;;;;;;28.50;25.75;;;;;;;;5079915;28;8982;-69
2021/01/18 03:31:29;;;;;;;;;25.50;23.50;;;;;;;;5081069;28;8857;-69
2021/01/18 03:33:55;;;;;;;;;24.75;21.00;;;;;;;;5079283;28;8844;-69
2021/01/18 03:36:21;;;;;;;;;26.75;21.50;;;;;;;;5081721;28;8850;-69
2021/01/18 03:38:47;;;;;;;;;27.00;22.75;;;;;;;;5074600;28;8831;-69
2021/01/18 03:41:13;;;;;;;;;30.00;24.75;;;;;;;;5081558;28;8849;-69
2021/01/18 03:43:40;;;;;;;;;35.00;26.75;;;;;;;;5079209;28;8930;-69
2021/01/18 03:46:06;;;;;;;;;35.25;27.50;;;;;;;;5080549;28;8821;-70
2021/01/18 03:48:32;;;;;;;;;26.00;22.25;;;;;;;;5080146;28;8822;-69
2021/01/18 03:50:58;;;;;;;;;32.25;26.50;;;;;;;;5079259;28;8832;-69
2021/01/18 03:53:24;;;;;;;;;37.00;28.50;;;;;;;;5081512;28;8972;-69
2021/01/18 03:55:50;;;;;;;;;26.50;23.00;;;;;;;;5078402;28;8840;-70
2021/01/18 03:58:15;;;;;;;;;27.00;26.00;;;;;;;;5081613;28;8838;-69
2021/01/18 04:00:42;;;;;;;;;23.50;19.25;;;;;;;;5078869;28;8861;-69
2021/01/18 04:03:08;;;;;;;;;26.25;23.00;;;;;;;;5080315;28;8860;-69
2021/01/18 04:05:34;;;;;;;;;23.25;23.25;;;;;;;;5079646;28;8845;-69
2021/01/18 04:08:00;;;;;;;;;25.50;22.50;;;;;;;;5079679;28;8841;-68
2021/01/18 04:10:28;;;;;;;;;22.00;19.25;;;;;;;;5080514;28;8985;-69
2021/01/18 04:12:54;;;;;;;;;23.50;19.50;;;;;;;;5078514;28;8847;-69
2021/01/18 04:15:21;;;;;;;;;22.00;18.50;;;;;;;;5081551;28;8942;-69
2021/01/18 04:17:48;;;;;;;;;17.00;15.50;;;;;;;;5074054;28;8976;-69
2021/01/18 04:20:15;;;;;;;;;18.75;17.50;;;;;;;;5080920;28;8938;-69
2021/01/18 04:22:44;;;;;;;;;18.50;15.25;;;;;;;;5078669;28;8837;-68
2021/01/18 04:25:11;;;;;;;;;24.25;17.75;;;;;;;;5080455;28;8867;-69
2021/01/18 04:27:36;;;;;;;;;16.00;14.50;;;;;;;;5079246;28;9578;-70
2021/01/18 04:30:03;;;;;;;;;17.25;15.00;;;;;;;;5079216;28;8837;-69
2021/01/18 04:32:29;;;;;;;;;18.75;17.00;;;;;;;;5080228;28;8935;-68
2021/01/18 04:34:56;;;;;;;;;20.75;18.50;;;;;;;;5078552;28;8829;-69
2021/01/18 04:37:22;;;;;;;;;15.50;15.50;;;;;;;;5081020;28;8956;-69
2021/01/18 04:39:48;;;;;;;;;22.00;17.50;;;;;;;;5077942;28;8820;-69
2021/01/18 04:42:15;;;;;;;;;16.75;16.25;;;;;;;;5080870;28;8940;-70
2021/01/18 04:44:41;;;;;;;;;19.00;17.25;;;;;;;;5078515;28;8977;-69
2021/01/18 04:47:11;;;;;;;;;18.25;17.50;;;;;;;;5079823;28;8896;-70
2021/01/18 04:49:37;;;;;;;;;19.25;19.25;;;;;;;;5078991;28;8826;-69
2021/01/18 04:52:09;;;;;;;;;20.25;18.00;;;;;;;;5079328;28;8848;-69
2021/01/18 04:54:38;;;;;;;;;29.75;23.25;;;;;;;;5079139;28;8919;-69
2021/01/18 04:57:09;;;;;;;;;25.00;25.00;;;;;;;;5079491;28;8837;-69
2021/01/18 04:59:39;;;;;;;;;34.50;26.50;;;;;;;;5077152;28;8880;-69
2021/01/18 05:02:06;;;;;;;;;25.00;23.25;;;;;;;;5076646;28;8978;-69
2021/01/18 05:04:36;;;;;;;;;27.25;24.00;;;;;;;;5077022;28;8972;-69
2021/01/18 05:07:12;;;;;;;;;24.00;18.75;;;;;;;;5078604;28;8948;-68
2021/01/18 05:09:44;;;;;;;;;27.75;22.50;;;;;;;;5078298;28;8889;-69
2021/01/18 05:12:10;;;;;;;;;19.00;16.50;;;;;;;;5080323;28;8842;-68
2021/01/18 05:14:37;;;;;;;;;22.00;22.00;;;;;;;;5078587;28;8899;-69
2021/01/18 05:17:07;;;;;;;;;28.75;22.50;;;;;;;;5079402;28;9024;-68
2021/01/18 05:19:33;;;;;;;;;24.00;20.75;;;;;;;;5078869;28;8849;-69
2021/01/18 05:21:59;;;;;;;;;30.75;30.75;;;;;;;;5078843;28;8833;-68
2021/01/18 05:24:25;;;;;;;;;31.75;27.75;;;;;;;;5080110;28;9605;-70
2021/01/18 05:27:08;;;;;;;;;25.00;23.50;;;;;;;;5077140;28;8836;-69
2021/01/18 05:29:35;;;;;;;;;28.25;24.25;;;;;;;;5078811;28;8872;-69
2021/01/18 05:32:01;;;;;;;;;33.50;28.50;;;;;;;;5078853;28;8842;-69
2021/01/18 05:34:28;;;;;;;;;26.50;26.50;;;;;;;;5079265;28;8837;-70
2021/01/18 05:36:54;;;;;;;;;34.25;28.50;;;;;;;;5081330;28;8963;-70
2021/01/18 05:39:21;;;;;;;;;19.00;18.25;;;;;;;;5084122;28;8961;-70
2021/01/18 05:41:47;;;;;;;;;22.00;19.00;;;;;;;;5081023;28;8859;-70
2021/01/18 05:44:14;;;;;;;;;23.50;19.00;;;;;;;;5084143;28;8814;-69
2021/01/18 05:46:41;;;;;;;;;26.25;23.25;;;;;;;;5081387;28;8832;-69
2021/01/18 05:49:09;;;;;;;;;17.00;16.00;;;;;;;;5083051;28;8829;-70
2021/01/18 05:51:35;;;;;;;;;17.75;15.50;;;;;;;;5082074;28;8857;-70
2021/01/18 05:54:02;;;;;;;;;18.50;15.00;;;;;;;;5082608;28;8821;-69
2021/01/18 05:56:37;;;;;;;;;14.00;12.00;;;;;;;;5082791;28;8853;-70
2021/01/18 05:59:10;;;;;;;;;11.75;10.00;;;;;;;;5082583;28;8841;-70
2021/01/18 06:01:39;;;;;;;;;11.75;9.25;;;;;;;;5081632;28;8834;-68
2021/01/18 06:04:09;;;;;;;;;19.00;18.25;;;;;;;;5082302;28;8837;-69
2021/01/18 06:06:35;;;;;;;;;21.75;19.00;;;;;;;;5081911;28;8932;-69
2021/01/18 06:09:01;;;;;;;;;18.00;17.00;;;;;;;;5082003;28;8920;-69
2021/01/18 06:11:27;;;;;;;;;23.25;21.25;;;;;;;;5081885;28;8965;-69
2021/01/18 06:13:59;;;;;;;;;20.25;17.50;;;;;;;;5082369;28;8828;-69
2021/01/18 06:16:25;;;;;;;;;23.25;20.25;;;;;;;;5080206;28;8942;-73
2021/01/18 06:19:00;;;;;;;;;26.75;21.25;;;;;;;;5080381;28;8967;-75
2021/01/18 06:21:34;;;;;;;;;22.75;20.25;;;;;;;;5080652;28;9556;-76
2021/01/18 06:24:12;;;;;;;;;18.50;14.25;;;;;;;;5082338;28;8818;-77
2021/01/18 06:26:39;;;;;;;;;25.00;18.75;;;;;;;;5083281;28;8949;-75
2021/01/18 06:29:05;;;;;;;;;24.00;21.00;;;;;;;;5080877;28;8842;-77
2021/01/18 06:31:43;;;;;;;;;34.50;27.50;;;;;;;;5081622;28;8853;-75
2021/01/18 06:34:11;;;;;;;;;30.50;27.50;;;;;;;;5081813;28;8873;-76
2021/01/18 06:36:37;;;;;;;;;24.75;22.25;;;;;;;;5083341;28;8861;-75
2021/01/18 06:39:05;;;;;;;;;28.00;23.00;;;;;;;;5081379;28;9544;-75
2021/01/18 06:41:32;;;;;;;;;18.00;18.00;;;;;;;;5082020;28;8834;-74
2021/01/18 06:43:58;;;;;;;;;28.50;26.00;;;;;;;;5080497;28;8975;-75
2021/01/18 06:46:26;;;;;;;;;28.50;26.50;;;;;;;;5081734;28;8930;-75
2021/01/18 06:48:52;;;;;;;;;28.75;25.75;;;;;;;;5078703;28;8977;-78
2021/01/18 06:51:20;;;;;;;;;33.50;28.00;;;;;;;;4955717;28;10861;-76
2021/01/18 06:53:47;;;;;;;;;33.00;28.25;;;;;;;;5033820;28;8821;-76
2021/01/18 06:56:29;;;;;;;;;11.75;6.00;;;;;;;;5040381;28;8857;-75
2021/01/18 06:58:56;;;;;;;;;27.00;24.75;;;;;;;;5035409;28;8876;-72
2021/01/18 07:01:27;;;;;;;;;40.75;34.75;;;;;;;;5040305;28;8841;-74
2021/01/18 07:03:54;;;;;;;;;36.25;32.25;;;;;;;;5037825;28;8844;-77
2021/01/18 07:06:30;;;;;;;;;35.50;30.00;;;;;;;;5040591;28;9027;-73
2021/01/18 07:08:57;;;;;;;;;39.25;34.25;;;;;;;;5040608;28;8851;-71
2021/01/18 07:11:23;;;;;;;;;32.50;28.00;;;;;;;;5038130;28;8852;-74
2021/01/18 07:13:50;;;;;;;;;32.00;30.00;;;;;;;;5042173;28;8869;-76
2021/01/18 07:16:17;;;;;;;;;34.25;32.50;;;;;;;;5027034;28;8835;-75
2021/01/18 07:18:45;;;;;;;;;38.25;32.75;;;;;;;;5041136;28;8860;-76
2021/01/18 07:21:17;;;;;;;;;32.25;28.00;;;;;;;;5039241;28;8853;-75
2021/01/18 07:23:47;;;;;;;;;27.75;27.25;;;;;;;;5037184;28;8877;-76
2021/01/18 07:26:29;;;;;;;;;28.00;26.75;;;;;;;;5039340;28;9700;-75
2021/01/18 07:28:59;;;;;;;;;43.00;31.75;;;;;;;;5034283;28;8855;-75
2021/01/18 07:31:25;;;;;;;;;32.75;30.00;;;;;;;;5039282;28;8976;-75
2021/01/18 07:33:51;;;;;;;;;30.50;28.25;;;;;;;;5037789;28;8858;-75
2021/01/18 07:36:22;;;;;;;;;41.00;36.00;;;;;;;;5042383;28;8941;-74
2021/01/18 07:38:49;;;;;;;;;32.50;30.25;;;;;;;;5035222;28;8990;-74
2021/01/18 07:41:15;;;;;;;;;34.50;27.50;;;;;;;;5034073;28;9079;-74
2021/01/18 07:43:42;;;;;;;;;34.75;34.75;;;;;;;;5041690;28;9010;-75
2021/01/18 07:46:28;;;;;;;;;30.50;28.25;;;;;;;;5039378;28;8952;-69
2021/01/18 07:48:54;;;;;;;;;39.50;36.25;;;;;;;;5034333;28;8835;-74
2021/01/18 07:51:21;;;;;;;;;42.50;38.75;;;;;;;;5034661;28;9133;-75
2021/01/18 07:53:47;;;;;;;;;40.75;34.25;;;;;;;;5031071;28;9684;-74
2021/01/18 07:56:23;;;;;;;;;42.50;39.00;;;;;;;;5041050;28;8969;-74
2021/01/18 07:58:56;;;;;;;;;46.50;37.75;;;;;;;;5034151;28;8836;-74
2021/01/18 08:01:27;;;;;;;;;41.25;38.75;;;;;;;;5036277;28;8886;-75
2021/01/18 08:03:53;;;;;;;;;45.50;39.25;;;;;;;;5041166;28;8987;-80
2021/01/18 08:06:19;;;;;;;;;45.50;39.00;;;;;;;;5033922;28;8849;-79
2021/01/18 08:08:46;;;;;;;;;44.50;39.75;;;;;;;;5033047;28;8877;-77
2021/01/18 08:11:19;;;;;;;;;46.75;40.50;;;;;;;;5035476;28;8928;-77
2021/01/18 08:13:47;;;;;;;;;47.50;42.00;;;;;;;;5030361;28;8856;-74
2021/01/18 08:16:23;;;;;;;;;40.25;37.25;;;;;;;;5038579;28;8860;-72
2021/01/18 08:18:52;;;;;;;;;41.75;36.50;;;;;;;;5041487;28;8942;-78
2021/01/18 08:21:42;;;;;;;;;49.25;35.75;;;;;;;;5034157;28;8831;-76
2021/01/18 08:24:09;;;;;;;;;40.50;38.75;;;;;;;;5032736;28;8991;-73
2021/01/18 08:26:52;;;;;;;;;48.50;43.00;;;;;;;;5036013;28;8852;-73
2021/01/18 08:29:35;;;;;;;;;54.75;43.75;;;;;;;;5033788;28;8832;-72
2021/01/18 08:32:15;;;;;;;;;51.00;43.25;;;;;;;;5037410;28;8954;-75
2021/01/18 08:34:41;;;;;;;;;52.25;43.00;;;;;;;;5015630;28;8963;-74
2021/01/18 08:37:08;;;;;;;;;53.00;44.00;;;;;;;;5041924;28;8987;-75
2021/01/18 08:39:35;;;;;;;;;56.50;45.25;;;;;;;;5035397;28;8856;-75
2021/01/18 08:42:03;;;;;;;;;53.75;46.25;;;;;;;;5039329;28;8853;-75
2021/01/18 08:44:30;;;;;;;;;57.25;47.75;;;;;;;;5038579;28;8887;-74
2021/01/18 08:46:56;;;;;;;;;53.50;46.50;;;;;;;;5036762;28;8942;-70
2021/01/18 08:49:23;;;;;;;;;58.75;48.25;;;;;;;;5034225;28;8854;-74
2021/01/18 08:51:49;;;;;;;;;60.50;47.50;;;;;;;;5036364;28;9113;-73
2021/01/18 08:54:27;;;;;;;;;53.00;44.00;;;;;;;;5031381;28;8960;-73
2021/01/18 08:57:13;;;;;;;;;54.50;43.00;;;;;;;;5039946;28;8960;-73
2021/01/18 08:59:40;;;;;;;;;49.50;42.00;;;;;;;;5035632;28;8957;-73
2021/01/18 09:02:06;;;;;;;;;43.50;36.25;;;;;;;;5038889;28;8990;-75
2021/01/18 09:04:32;;;;;;;;;42.75;37.75;;;;;;;;5036027;28;8860;-73
2021/01/18 09:07:01;;;;;;;;;36.50;32.25;;;;;;;;5037768;28;8979;-74
2021/01/18 09:09:27;;;;;;;;;30.75;25.00;;;;;;;;5033728;28;8860;-77
2021/01/18 09:11:53;;;;;;;;;33.00;28.50;;;;;;;;5041633;28;8848;-72
2021/01/18 09:14:20;;;;;;;;;34.50;29.25;;;;;;;;5040519;28;9002;-73
2021/01/18 09:16:48;;;;;;;;;36.00;31.00;;;;;;;;5037785;28;8963;-74
2021/01/18 09:19:17;;;;;;;;;37.00;33.25;;;;;;;;5043972;28;8938;-74
2021/01/18 09:21:43;;;;;;;;;29.50;24.75;;;;;;;;5044367;28;8977;-71
2021/01/18 09:24:10;;;;;;;;;37.00;35.00;;;;;;;;5043069;28;8872;-71
2021/01/18 09:26:36;;;;;;;;;35.00;33.00;;;;;;;;5041086;28;8836;-71
2021/01/18 09:29:02;;;;;;;;;31.75;27.25;;;;;;;;5039451;28;8857;-73
2021/01/18 09:31:28;;;;;;;;;40.75;33.50;;;;;;;;5041577;28;8999;-74
2021/01/18 09:33:55;;;;;;;;;42.50;38.25;;;;;;;;5043270;28;8955;-75
2021/01/18 09:36:22;;;;;;;;;42.25;38.50;;;;;;;;5043140;28;8972;-75
2021/01/18 09:38:49;;;;;;;;;39.00;36.50;;;;;;;;5042546;28;8841;-73
2021/01/18 09:41:15;;;;;;;;;41.00;34.50;;;;;;;;5041558;28;8944;-75
2021/01/18 09:43:42;;;;;;;;;50.25;39.75;;;;;;;;5043028;28;9094;-72
2021/01/18 09:46:09;;;;;;;;;38.25;34.00;;;;;;;;5040750;28;8883;-74
2021/01/18 09:48:35;;;;;;;;;38.50;36.75;;;;;;;;5041346;28;8974;-74
2021/01/18 09:51:03;;;;;;;;;45.75;37.75;;;;;;;;5043431;28;9628;-73
2021/01/18 09:53:29;;;;;;;;;36.25;32.75;;;;;;;;5039972;28;8836;-67
2021/01/18 09:55:56;;;;;;;;;40.25;33.25;;;;;;;;5039927;28;8853;-70
2021/01/18 09:58:26;;;;;;;;;38.25;35.50;;;;;;;;5040090;28;8836;-65
2021/01/18 10:00:53;;;;;;;;;38.25;34.75;;;;;;;;5036339;28;8998;-63
2021/01/18 10:03:25;;;;;;;;;35.75;35.75;;;;;;;;5043973;28;8836;-64
2021/01/18 10:05:52;;;;;;;;;39.50;37.25;;;;;;;;5036818;28;8848;-65
2021/01/18 10:08:21;;;;;;;;;36.50;33.50;;;;;;;;5040446;28;8955;-66
2021/01/18 10:10:49;;;;;;;;;36.75;34.25;;;;;;;;5043039;28;9600;-66
2021/01/18 10:13:17;;;;;;;;;37.50;34.50;;;;;;;;5041092;28;8891;-66
2021/01/18 10:15:43;;;;;;;;;43.25;37.00;;;;;;;;5042700;28;8982;-67
2021/01/18 10:18:26;;;;;;;;;36.50;33.25;;;;;;;;5041206;28;8976;-68
2021/01/18 10:20:54;;;;;;;;;41.25;38.00;;;;;;;;5035780;28;8847;-68
2021/01/18 10:23:20;;;;;;;;;43.25;37.50;;;;;;;;5036112;28;8820;-67
2021/01/18 10:25:47;;;;;;;;;42.00;39.25;;;;;;;;5042642;28;8946;-65
2021/01/18 10:28:16;;;;;;;;;43.50;39.50;;;;;;;;5040651;28;8837;-66
2021/01/18 10:30:42;;;;;;;;;50.25;42.50;;;;;;;;5039774;28;8992;-67
2021/01/18 10:33:15;;;;;;;;;48.25;42.00;;;;;;;;5041945;28;8872;-67
2021/01/18 10:35:40;;;;;;;;;49.50;43.00;;;;;;;;5041192;28;8983;-67
2021/01/18 10:38:10;;;;;;;;;45.50;39.50;;;;;;;;5041428;28;8840;-67
2021/01/18 10:40:37;;;;;;;;;43.00;39.00;;;;;;;;5041149;28;8967;-67
2021/01/18 10:43:04;;;;;;;;;52.50;43.00;;;;;;;;5041269;28;8966;-67
2021/01/18 10:45:30;;;;;;;;;52.75;45.50;;;;;;;;5042336;28;8966;-67
2021/01/18 10:47:56;;;;;;;;;64.00;49.75;;;;;;;;5039352;28;8824;-67
2021/01/18 10:50:23;;;;;;;;;46.75;41.75;;;;;;;;5041639;28;9650;-65
2021/01/18 10:52:49;;;;;;;;;49.00;42.00;;;;;;;;5039315;28;8947;-67
2021/01/18 10:55:17;;;;;;;;;19.75;16.00;;;;;;;;5042545;28;8864;-65
2021/01/18 10:57:46;;;;;;;;;46.00;37.25;;;;;;;;5040070;28;8849;-71
2021/01/18 11:00:12;;;;;;;;;33.50;31.50;;;;;;;;5041546;28;8836;-70
2021/01/18 11:02:39;;;;;;;;;40.75;39.00;;;;;;;;5039886;28;9000;-70
2021/01/18 11:05:06;;;;;;;;;39.75;37.25;;;;;;;;5040513;28;9049;-70
2021/01/18 11:07:33;;;;;;;;;33.75;33.75;;;;;;;;5042428;28;8840;-69
2021/01/18 11:09:59;;;;;;;;;49.75;39.50;;;;;;;;5041799;28;8865;-72
2021/01/18 11:12:29;;;;;;;;;41.33;33.67;;;;;;;;5038829;28;8896;-73
2021/01/18 11:14:58;;;;;;;;;43.75;38.25;;;;;;;;5042174;28;8963;-77
2021/01/18 11:17:26;;;;;;;;;36.00;33.67;;;;;;;;5038589;28;8832;-72
2021/01/18 11:19:52;;;;;;;;;35.33;28.00;;;;;;;;5034799;28;8828;-75
2021/01/18 11:22:18;;;;;;;;;27.33;27.33;;;;;;;;5041971;28;8849;-73
2021/01/18 11:25:52;;;;;;;;;35.40;32.00;;;;;;;;5097711;27;13509;-72
2021/01/18 11:28:19;;;;;;;;;19.33;16.67;;;;;;;;5046562;28;8825;-73
2021/01/18 11:30:45;;;;;;;;;32.33;27.67;;;;;;;;5046377;28;11675;-72
2021/01/18 11:33:11;;;;;;;;;29.50;27.50;;;;;;;;5044677;28;11555;-72
2021/01/18 11:35:38;;;;;;;;;28.75;25.25;;;;;;;;5046062;28;11553;-71
2021/01/18 11:38:04;;;;;;;;;22.25;21.00;;;;;;;;5045799;28;11721;-72
2021/01/18 11:40:30;;;;;;;;;28.75;27.50;;;;;;;;5043109;28;11590;-71
2021/01/18 11:42:57;;;;;;;;;31.25;28.00;;;;;;;;5041706;28;11611;-72
2021/01/18 11:45:23;;;;;;;;;23.75;21.50;;;;;;;;5044659;28;11554;-73
2021/01/18 11:47:50;;;;;;;;;25.00;22.75;;;;;;;;4996008;28;12260;-73
2021/01/18 11:50:16;;;;;;;;;23.25;21.50;;;;;;;;5045190;28;9002;-73
2021/01/18 11:52:42;;;;;;;;;25.00;24.75;;;;;;;;5043905;28;11598;-73
2021/01/18 11:55:09;;;;;;;;;27.00;25.25;;;;;;;;5041210;28;9065;-73
2021/01/18 11:57:35;;;;;;;;;29.25;26.25;;;;;;;;5044085;28;11830;-73
2021/01/18 12:00:02;;;;;;;;;23.25;20.50;;;;;;;;5044445;28;12290;-73
2021/01/18 12:02:28;;;;;;;;;29.25;25.00;;;;;;;;5044569;28;8978;-71
2021/01/18 12:04:54;;;;;;;;;30.50;26.75;;;;;;;;5043480;28;11570;-67
2021/01/18 12:07:20;;;;;;;;;29.67;27.33;;;;;;;;5044556;28;8916;-67
2021/01/18 12:09:46;;;;;;;;;26.50;24.25;;;;;;;;5041886;28;8994;-67
2021/01/18 12:12:12;;;;;;;;;23.25;22.25;;;;;;;;5043384;28;8889;-68
2021/01/18 12:14:38;;;;;;;;;23.25;21.25;;;;;;;;5043072;28;8840;-67
2021/01/18 12:17:05;;;;;;;;;23.00;22.00;;;;;;;;5044734;28;12274;-70
2021/01/18 12:19:31;;;;;;;;;19.25;18.00;;;;;;;;5043860;28;8840;-70
2021/01/18 12:21:57;;;;;;;;;17.25;14.50;;;;;;;;5036763;28;11721;-69
2021/01/18 12:24:23;;;;;;;;;17.00;16.33;;;;;;;;5040160;28;11598;-69
2021/01/18 12:26:52;;;;;;;;;20.50;20.50;;;;;;;;5043695;28;8967;-70
2021/01/18 12:29:18;;;;;;;;;22.00;20.33;;;;;;;;5044744;28;8848;-71
2021/01/18 12:31:44;;;;;;;;;25.00;21.33;;;;;;;;5043537;28;11604;-70
2021/01/18 12:34:11;;;;;;;;;28.00;23.00;;;;;;;;5040431;28;8870;-70
2021/01/18 12:36:37;;;;;;;;;27.67;24.00;;;;;;;;5033780;28;8971;-69
2021/01/18 12:39:05;;;;;;;;;24.00;19.33;;;;;;;;5022377;28;11641;-69
2021/01/18 12:41:31;;;;;;;;;18.00;17.33;;;;;;;;5029346;28;8988;-69
2021/01/18 12:43:57;;;;;;;;;16.00;14.50;;;;;;;;5030896;28;11563;-69
2021/01/18 12:46:22;;;;;;;;;15.25;13.50;;;;;;;;5027007;28;9675;-69
2021/01/18 12:48:49;;;;;;;;;18.67;17.33;;;;;;;;5029733;28;8922;-68
2021/01/18 12:51:16;;;;;;;;;19.50;13.50;;;;;;;;5030782;28;9592;-69
2021/01/18 12:53:45;;;;;;;;;40.67;32.33;;;;;;;;5029748;28;11702;-69
2021/01/18 12:56:11;;;;;;;;;20.00;17.33;;;;;;;;5030938;28;8860;-69
2021/01/18 12:58:37;;;;;;;;;22.00;19.33;;;;;;;;5030000;28;11579;-69
2021/01/18 13:01:03;;;;;;;;;20.00;18.00;;;;;;;;5030430;28;11575;-69
2021/01/18 13:03:29;;;;;;;;;18.00;14.00;;;;;;;;5029471;28;8970;-68
2021/01/18 13:05:55;;;;;;;;;17.33;16.67;;;;;;;;5030854;28;11696;-69
2021/01/18 13:08:22;;;;;;;;;17.33;17.33;;;;;;;;5030020;28;11567;-69
2021/01/18 13:10:48;;;;;;;;;18.67;18.33;;;;;;;;5029607;28;8975;-71
2021/01/18 13:13:14;;;;;;;;;18.67;14.00;;;;;;;;5030346;28;11567;-68
2021/01/18 13:15:40;;;;;;;;;14.00;13.00;;;;;;;;5030022;28;8928;-69
2021/01/18 13:18:06;;;;;;;;;17.33;13.67;;;;;;;;5029879;28;11708;-69
2021/01/18 13:20:32;;;;;;;;;14.67;13.67;;;;;;;;5029478;28;8966;-69
2021/01/18 13:22:58;;;;;;;;;18.00;18.00;;;;;;;;5030351;28;8873;-69
2021/01/18 13:25:27;;;;;;;;;17.00;14.00;;;;;;;;5029457;28;8872;-69
2021/01/18 13:27:53;;;;;;;;;17.00;14.67;;;;;;;;5028667;28;8837;-69
2021/01/18 13:30:19;;;;;;;;;20.33;16.00;;;;;;;;5031035;28;11574;-69
2021/01/18 13:32:47;;;;;;;;;18.33;16.00;;;;;;;;5032172;28;8855;-69
2021/01/18 13:35:13;;;;;;;;;17.33;13.33;;;;;;;;5032709;28;9024;-71
2021/01/18 13:37:39;;;;;;;;;19.33;17.33;;;;;;;;5030238;28;9023;-68
2021/01/18 13:40:06;;;;;;;;;19.00;15.67;;;;;;;;5029188;28;8849;-61
2021/01/18 13:42:32;;;;;;;;;18.67;16.33;;;;;;;;5028532;28;9678;-60
2021/01/18 13:44:58;;;;;;;;;22.00;18.33;;;;;;;;5029186;28;8968;-61
2021/01/18 13:47:24;;;;;;;;;18.33;16.33;;;;;;;;5026674;28;8879;-61
2021/01/18 13:49:50;;;;;;;;;15.33;14.33;;;;;;;;5027691;28;9731;-60
2021/01/18 13:52:16;;;;;;;;;21.00;18.00;;;;;;;;5029501;28;8833;-61
2021/01/18 13:54:42;;;;;;;;;24.00;21.33;;;;;;;;5029611;28;8850;-63
2021/01/18 13:57:08;;;;;;;;;22.67;19.33;;;;;;;;5029453;28;8924;-65
2021/01/18 13:59:35;;;;;;;;;19.00;17.33;;;;;;;;5028779;28;8853;-66
2021/01/18 14:02:01;;;;;;;;;23.00;19.00;;;;;;;;5029862;28;8832;-66
2021/01/18 14:04:27;;;;;;;;;23.33;17.67;;;;;;;;5029646;28;8976;-67
2021/01/18 14:06:53;;;;;;;;;16.00;14.33;;;;;;;;5029067;28;8874;-66
2021/01/18 14:09:19;;;;;;;;;19.00;17.00;;;;;;;;5028202;28;9576;-67
2021/01/18 14:11:47;;;;;;;;;17.67;16.33;;;;;;;;5028967;28;8851;-67
2021/01/18 14:14:13;;;;;;;;;15.33;15.00;;;;;;;;5029750;28;8864;-66
2021/01/18 14:16:40;;;;;;;;;21.67;18.00;;;;;;;;5027922;28;8987;-78
2021/01/18 14:19:07;;;;;;;;;15.33;14.33;;;;;;;;5029803;28;8849;-76
2021/01/18 14:21:33;;;;;;;;;17.67;15.67;;;;;;;;5028650;28;8888;-77
2021/01/18 14:24:02;;;;;;;;;19.00;18.00;;;;;;;;5030067;28;8899;-66
2021/01/18 14:26:29;;;;;;;;;18.00;18.00;;;;;;;;5028975;28;9937;-65
2021/01/18 14:28:55;;;;;;;;;17.67;14.67;;;;;;;;5027944;28;9034;-66
2021/01/18 14:31:21;;;;;;;;;20.67;17.00;;;;;;;;5028470;28;8852;-69
2021/01/18 14:33:48;;;;;;;;;14.00;13.33;;;;;;;;5027890;28;8992;-69